.
WxDataArchive / Data Records for 2011-11-29
2011-11-28 November 2011 2011-11-30

Data Records for Tuesday, 29 November 2011

Time	Temp	Chill	HIndex	Humid	Dewpt	 Wind 	HiWind	WindDir	Rain 	Barom 
-----	----	-----	------	-----	-----	------	------	-------	-----	----- 
00:00	38.5	38.5	38.5	94	36.9	1	4	68	0.01	29.861 
00:05	38.5	38.5	38.5	94	36.9	1	6	22	0.01	29.861 
00:10	38.5	38.5	38.5	94	36.9	2	6	90	0.01	29.861 
00:15	38.5	38.5	38.5	94	36.9	1	6	90	0.01	29.849 
00:20	38.5	38.5	38.5	94	36.9	2	6	90	0.01	29.849 
00:25	38.6	38.6	38.6	94	37.0	2	6	112	0.01	29.849 
00:30	38.6	38.6	38.6	94	37.0	2	5	112	0.01	29.844 
00:35	38.8	38.8	38.8	94	37.2	2	9	90	0.02	29.844 
00:40	38.9	38.9	38.9	94	37.3	1	4	112	0.01	29.844 
00:45	39.1	39.1	39.1	94	37.5	1	3	112	0.02	29.822 
00:50	39.2	39.2	39.2	95	37.9	2	6	68	0.01	29.822 
00:55	39.3	39.3	39.3	95	38.0	2	5	90	0.01	29.822 
01:00	39.5	39.5	39.5	95	38.2	2	7	90	0.01	29.814 
01:05	39.6	39.6	39.6	95	38.3	1	4	45	0.02	29.814 
01:10	39.6	39.6	39.6	95	38.3	1	3	90	0.01	29.814 
01:15	39.8	39.8	39.8	95	38.5	2	4	90	0.02	29.799 
01:20	39.9	39.9	39.9	95	38.6	2	5	90	0.01	29.799 
01:25	40.1	40.1	40.1	95	38.8	2	6	45	0.01	29.799 
01:30	40.1	40.1	40.1	95	38.8	2	7	45	0.00	29.788 
01:35	40.1	40.1	40.1	95	38.8	1	5	112	0.01	29.788 
01:40	40.1	40.1	40.1	95	38.8	2	6	135	0.00	29.788 
01:45	39.9	39.9	39.9	95	38.6	1	4	90	0.00	29.783 
01:50	39.9	39.9	39.9	95	38.6	1	5	135	0.01	29.783 
01:55	39.8	39.8	39.8	95	38.5	1	4	90	0.00	29.783 
02:00	39.6	39.6	39.6	95	38.3	1	4	68	0.00	29.786 
02:05	39.6	39.6	39.6	95	38.3	1	4	112	0.02	29.786 
02:10	39.6	39.6	39.6	95	38.3	0	2	112	0.01	29.786 
02:15	39.6	39.6	39.6	95	38.3	0	3	112	0.02	29.774 
02:20	39.5	39.5	39.5	95	38.2	1	4	112	0.02	29.774 
02:25	39.5	39.5	39.5	95	38.2	0	2	0	0.01	29.774 
02:30	39.3	39.3	39.3	95	38.0	1	7	22	0.01	29.771 
02:35	39.3	39.3	39.3	95	38.0	1	4	112	0.02	29.771 
02:40	39.3	39.3	39.3	95	38.0	2	7	45	0.02	29.771 
02:45	39.3	39.3	39.3	95	38.0	1	6	68	0.01	29.786 
02:50	39.3	39.3	39.3	95	38.0	2	5	112	0.02	29.786 
02:55	39.3	39.3	39.3	95	38.0	0	4	90	0.02	29.786 
03:00	39.2	39.2	39.2	95	37.9	2	5	68	0.01	29.772 
03:05	39.2	39.2	39.2	95	37.9	2	15	112	0.02	29.772 
03:10	39.2	39.2	39.2	95	37.9	1	6	22	0.02	29.772 
03:15	39.2	39.2	39.2	95	37.9	1	6	22	0.01	29.758 
03:20	39.2	39.2	39.2	95	37.9	1	3	22	0.01	29.758 
03:25	39.2	39.2	39.2	95	37.9	1	5	90	0.01	29.758 
03:30	39.2	39.2	39.2	95	37.9	2	5	90	0.02	29.757 
03:35	39.3	39.3	39.3	95	38.0	1	4	45	0.01	29.757 
03:40	39.3	39.3	39.3	95	38.0	2	6	112	0.01	29.757 
03:45	39.3	39.3	39.3	95	38.0	1	5	135	0.00	29.756 
03:50	39.5	39.5	39.5	95	38.2	2	8	45	0.00	29.756 
03:55	39.5	39.5	39.5	95	38.2	1	6	0	0.01	29.756 
04:00	39.6	39.6	39.6	95	38.3	2	6	135	0.01	29.744 
04:05	39.6	39.6	39.6	95	38.3	1	10	45	0.01	29.744 
04:10	39.8	39.8	39.8	95	38.5	1	3	338	0.01	29.744 
04:15	39.8	39.8	39.8	95	38.5	1	5	338	0.01	29.737 
04:20	39.8	39.8	39.8	95	38.5	1	10	0	0.01	29.737 
04:25	39.8	39.8	39.8	95	38.5	1	5	45	0.01	29.737 
04:30	39.8	39.8	39.8	95	38.5	1	6	22	0.01	29.739 
04:35	39.8	39.8	39.8	95	38.5	1	3	90	0.00	29.739 
04:40	39.6	39.6	39.6	95	38.3	1	4	338	0.01	29.739 
04:45	39.6	39.6	39.6	95	38.3	2	5	0	0.00	29.736 
04:50	39.5	39.5	39.5	95	38.2	1	4	338	0.01	29.736 
04:55	39.3	39.3	39.3	95	38.0	1	3	45	0.00	29.736 
05:00	39.2	39.2	39.2	95	37.9	2	7	45	0.01	29.728 
05:05	39.1	39.1	39.1	95	37.8	1	7	45	0.00	29.728 
05:10	38.9	38.9	38.9	95	37.6	1	4	0	0.01	29.728 
05:15	38.8	38.8	38.8	95	37.5	1	4	0	0.00	29.724 
05:20	38.6	38.6	38.6	95	37.3	1	6	22	0.01	29.724 
05:25	38.5	38.5	38.5	95	37.2	1	5	45	0.00	29.724 
05:30	38.3	38.3	38.3	95	37.0	1	4	135	0.01	29.728 
05:35	38.3	38.3	38.3	95	37.0	1	3	315	0.00	29.728 
05:40	38.2	38.2	38.2	95	36.9	1	4	338	0.00	29.728 
05:45	38.0	38.0	38.0	95	36.7	1	5	0	0.01	29.727 
05:50	38.0	38.0	38.0	95	36.7	2	7	112	0.00	29.727 
05:55	38.0	38.0	38.0	95	36.7	2	6	90	0.01	29.727 
06:00	38.0	38.0	38.0	95	36.7	1	5	135	0.02	29.730 
06:05	37.9	37.9	37.9	95	36.6	1	5	22	0.01	29.730 
06:10	37.9	37.9	37.9	95	36.6	2	6	112	0.02	29.730 
06:15	37.8	37.8	37.8	95	36.5	1	6	68	0.01	29.724 
06:20	37.8	37.8	37.8	95	36.5	1	5	90	0.01	29.724 
06:25	37.8	37.8	37.8	95	36.5	1	7	22	0.01	29.724 
06:30	37.6	37.6	37.6	95	36.3	1	4	68	0.00	29.713 
06:35	37.6	37.6	37.6	95	36.3	2	12	112	0.01	29.713 
06:40	37.6	37.6	37.6	95	36.3	1	4	315	0.00	29.713 
06:45	37.6	37.6	37.6	95	36.3	2	9	112	0.01	29.711 
06:50	37.6	37.6	37.6	95	36.3	2	6	135	0.00	29.711 
06:55	37.8	37.8	37.8	95	36.5	1	6	68	0.00	29.711 
07:00	37.8	37.8	37.8	95	36.5	3	12	90	0.01	29.711 
07:05	37.9	37.9	37.9	95	36.6	3	9	45	0.01	29.711 
07:10	37.9	37.9	37.9	95	36.6	3	13	112	0.00	29.711 
07:15	38.0	38.0	38.0	95	36.7	3	11	112	0.01	29.707 
07:20	38.0	38.0	38.0	95	36.7	2	13	68	0.00	29.707 
07:25	38.2	38.2	38.2	95	36.9	2	7	315	0.01	29.707 
07:30	38.2	38.2	38.2	95	36.9	2	9	338	0.00	29.712 
07:35	38.2	38.2	38.2	95	36.9	3	12	112	0.00	29.712 
07:40	38.2	38.2	38.2	95	36.9	2	7	135	0.01	29.712 
07:45	38.2	38.2	38.2	95	36.9	3	15	45	0.00	29.711 
07:50	38.0	38.0	38.0	95	36.7	3	9	68	0.00	29.711 
07:55	38.0	38.0	38.0	95	36.7	2	6	90	0.00	29.711 
08:00	38.0	38.0	38.0	95	36.7	1	9	90	0.00	29.710 
08:05	38.0	38.0	38.0	94	36.4	3	11	112	0.01	29.710 
08:10	37.9	37.9	37.9	94	36.3	3	13	112	0.00	29.710 
08:15	37.9	37.9	37.9	94	36.3	1	3	68	0.00	29.713 
08:20	37.9	37.9	37.9	94	36.3	1	6	292	0.01	29.713 
08:25	37.9	37.9	37.9	94	36.3	1	2	22	0.01	29.713 
08:30	37.8	37.8	37.8	94	36.2	1	7	22	0.00	29.713 
08:35	37.8	37.8	37.8	94	36.2	1	9	45	0.01	29.713 
08:40	37.8	37.8	37.8	94	36.2	2	10	22	0.00	29.713 
08:45	37.6	37.6	37.6	95	36.3	1	6	90	0.01	29.714 
08:50	37.6	37.6	37.6	95	36.3	2	5	112	0.01	29.714 
08:55	37.6	37.6	37.6	95	36.3	2	6	338	0.00	29.714 
09:00	37.6	37.6	37.6	95	36.3	2	6	112	0.01	29.713 
09:05	37.6	37.6	37.6	95	36.3	1	6	0	0.02	29.713 
09:10	37.6	37.6	37.6	95	36.3	1	5	112	0.00	29.713 
09:15	37.6	37.6	37.6	95	36.3	1	4	292	0.01	29.712 
09:20	37.5	37.5	37.5	95	36.2	2	10	45	0.01	29.712 
09:25	37.5	37.5	37.5	95	36.2	2	11	90	0.01	29.712 
09:30	37.5	37.5	37.5	95	36.2	1	4	315	0.01	29.710 
09:35	37.3	37.3	37.3	94	35.7	2	6	0	0.01	29.710 
09:40	37.2	37.2	37.2	94	35.6	3	13	112	0.01	29.710 
09:45	37.0	37.0	37.0	94	35.4	2	6	0	0.00	29.706 
09:50	37.0	37.0	37.0	94	35.4	2	8	112	0.00	29.706 
09:55	36.9	36.9	36.9	94	35.3	2	10	68	0.01	29.706 
10:00	36.9	36.9	36.9	94	35.3	2	7	112	0.00	29.699 
10:05	36.9	36.9	36.9	95	35.6	2	5	45	0.01	29.699 
10:10	36.9	36.9	36.9	94	35.3	2	10	0	0.00	29.699 
10:15	36.9	36.9	36.9	94	35.3	2	7	45	0.00	29.691 
10:20	37.0	37.0	37.0	94	35.4	3	14	45	0.00	29.691 
10:25	37.0	37.0	37.0	94	35.4	3	12	90	0.01	29.691 
10:30	37.0	37.0	37.0	94	35.4	2	7	0	0.00	29.691 
10:35	37.2	37.2	37.2	94	35.6	2	7	68	0.00	29.691 
10:40	37.2	37.2	37.2	94	35.6	2	10	315	0.00	29.691 
10:45	37.2	37.2	37.2	94	35.6	2	7	0	0.00	29.684 
10:50	37.2	37.2	37.2	94	35.6	2	7	112	0.00	29.684 
10:55	37.3	37.3	37.3	94	35.7	2	8	90	0.00	29.684 
11:00	37.3	37.3	37.3	94	35.7	2	6	338	0.00	29.678 
11:05	37.5	37.5	37.5	94	35.9	1	10	112	0.00	29.678 
11:10	37.6	37.6	37.6	94	36.0	2	7	135	0.00	29.678 
11:15	37.6	37.6	37.6	94	36.0	1	6	135	0.00	29.668 
11:20	37.8	37.8	37.8	94	36.2	2	11	0	0.00	29.668 
11:25	37.9	37.9	37.9	94	36.3	1	7	158	0.01	29.668 
11:30	37.9	37.9	37.9	94	36.3	2	4	338	0.00	29.660 
11:35	37.9	37.9	37.9	94	36.3	1	6	0	0.01	29.660 
11:40	37.9	37.9	37.9	94	36.3	1	3	22	0.01	29.660 
11:45	37.9	37.9	37.9	94	36.3	1	5	112	0.00	29.664 
11:50	37.9	37.9	37.9	94	36.3	1	4	338	0.00	29.664 
11:55	38.0	38.0	38.0	94	36.4	1	4	292	0.00	29.664 
12:00	37.9	37.9	37.9	94	36.3	1	5	0	0.01	29.655 
12:05	37.9	37.9	37.9	94	36.3	1	6	270	0.01	29.655 
12:10	37.9	37.9	37.9	94	36.3	1	6	270	0.00	29.655 
12:15	37.8	37.8	37.8	94	36.2	1	7	292	0.01	29.655 
12:20	37.8	37.8	37.8	94	36.2	1	6	90	0.02	29.655 
12:25	37.8	37.8	37.8	94	36.2	0	3	45	0.01	29.655 
12:30	37.9	37.9	37.9	94	36.3	0	1	270	0.02	29.668 
12:35	37.9	37.9	37.9	94	36.3	0	1	270	0.02	29.668 
12:40	37.9	37.9	37.9	94	36.3	0	1	270	0.02	29.668 
12:45	37.9	37.9	37.9	95	36.6	0	1	270	0.03	29.681 
12:50	38.0	38.0	38.0	95	36.7	0	0	---	0.03	29.681 
12:55	38.0	38.0	38.0	95	36.7	0	1	270	0.02	29.681 
13:00	37.8	37.8	37.8	94	36.2	0	0	---	0.02	29.687 
13:05	37.5	37.5	37.5	94	35.9	0	1	270	0.01	29.687 
13:10	37.0	37.0	37.0	94	35.4	0	1	270	0.02	29.687 
13:15	36.8	36.8	36.8	94	35.2	0	1	270	0.02	29.697 
13:20	36.5	36.5	36.5	94	34.9	0	0	---	0.01	29.697 
13:25	36.2	36.2	36.2	94	34.6	0	1	270	0.02	29.697 
13:30	36.0	36.0	36.0	94	34.4	0	2	270	0.01	29.695 
13:35	35.8	35.8	35.8	94	34.2	0	0	---	0.00	29.695 
13:40	35.6	35.6	35.6	94	34.0	0	1	270	0.01	29.695 
13:45	35.5	35.5	35.5	94	33.9	0	1	270	0.01	29.691 
13:50	35.2	35.2	35.2	94	33.6	0	0	---	0.01	29.691 
13:55	34.9	34.9	34.9	94	33.4	0	1	270	0.01	29.691 
14:00	34.7	34.7	34.7	94	33.2	0	2	270	0.00	29.691 
14:05	34.4	34.4	34.4	94	32.9	1	2	270	0.01	29.691 
14:10	34.3	34.3	34.3	94	32.8	1	2	270	0.00	29.691 
14:15	34.0	34.0	34.0	94	32.5	0	2	270	0.00	29.692 
14:20	33.7	33.7	33.7	94	32.2	0	2	270	0.01	29.692 
14:25	33.5	33.5	33.5	94	32.0	0	2	270	0.00	29.692 
14:30	33.2	33.2	33.2	94	31.7	0	2	270	0.00	29.692 
14:35	33.1	33.1	33.1	94	31.6	0	2	270	0.00	29.692 
14:40	33.1	33.1	33.1	95	31.8	1	2	270	0.00	29.692 
14:45	33.1	33.1	33.1	95	31.8	1	2	270	0.00	29.688 
14:50	32.9	32.9	32.9	95	31.6	1	3	270	0.00	29.688 
14:55	32.9	32.9	32.9	95	31.6	1	4	292	0.00	29.688 
15:00	32.8	32.8	32.8	95	31.5	1	2	292	0.00	29.685 
15:05	32.8	32.8	32.8	95	31.5	1	2	292	0.01	29.685 
15:10	32.8	32.8	32.8	95	31.5	1	2	292	0.00	29.685 
15:15	32.7	32.7	32.7	95	31.4	1	3	292	0.00	29.682 
15:20	32.7	32.7	32.7	95	31.4	0	2	292	0.00	29.682 
15:25	32.7	32.7	32.7	95	31.4	1	3	292	0.00	29.682 
15:30	32.7	32.7	32.7	95	31.4	1	3	315	0.00	29.681 
15:35	32.7	32.7	32.7	95	31.4	0	3	315	0.00	29.681 
15:40	32.7	32.7	32.7	95	31.4	1	2	315	0.00	29.681 
15:45	32.7	32.7	32.7	95	31.4	1	3	270	0.00	29.683 
15:50	32.7	32.7	32.7	95	31.4	1	3	270	0.00	29.683 
15:55	32.7	32.7	32.7	95	31.4	0	2	315	0.00	29.683 
16:00	32.7	32.7	32.7	95	31.4	1	3	292	0.00	29.685 
16:05	32.8	32.8	32.8	95	31.5	1	4	270	0.00	29.685 
16:10	32.8	32.8	32.8	95	31.5	1	2	292	0.00	29.685 
16:15	32.8	32.8	32.8	95	31.5	1	4	292	0.00	29.688 
16:20	32.8	32.8	32.8	95	31.5	1	2	292	0.00	29.688 
16:25	32.8	32.8	32.8	95	31.5	1	2	292	0.00	29.688 
16:30	32.7	32.7	32.7	95	31.4	1	3	270	0.00	29.689 
16:35	32.7	32.7	32.7	95	31.4	0	2	0	0.00	29.689 
16:40	32.7	32.7	32.7	95	31.4	0	0	---	0.01	29.689 
16:45	32.7	32.7	32.7	95	31.4	0	0	---	0.00	29.686 
16:50	32.7	32.7	32.7	95	31.4	0	0	---	0.00	29.686 
16:55	32.7	32.7	32.7	95	31.4	0	0	---	0.00	29.686 
17:00	32.7	32.7	32.7	95	31.4	0	0	---	0.00	29.685 
17:05	32.7	32.7	32.7	95	31.4	0	2	248	0.00	29.685 
17:10	32.8	32.8	32.8	96	31.8	0	1	0	0.00	29.685 
17:15	32.9	32.9	32.9	96	31.9	0	0	---	0.00	29.688 
17:20	33.1	33.1	33.1	96	32.1	0	0	---	0.00	29.688 
17:25	33.1	33.1	33.1	96	32.1	0	3	270	0.00	29.688 
17:30	33.1	33.1	33.1	96	32.1	1	4	292	0.00	29.690 
17:35	33.1	33.1	33.1	96	32.1	0	0	---	0.00	29.690 
17:40	33.1	33.1	33.1	96	32.1	0	0	---	0.00	29.690 
17:45	33.2	33.2	33.2	96	32.2	0	0	---	0.01	29.692 
17:50	33.2	33.2	33.2	96	32.2	0	0	---	0.00	29.692 
17:55	33.2	33.2	33.2	96	32.2	0	4	270	0.00	29.692 
18:00	33.2	33.2	33.2	96	32.2	2	6	315	0.00	29.695 
18:05	33.4	33.4	33.4	96	32.4	2	7	315	0.00	29.695 
18:10	33.4	33.4	33.4	96	32.4	2	7	338	0.01	29.695 
18:15	33.4	33.4	33.4	95	32.1	2	6	338	0.00	29.700 
18:20	33.4	33.4	33.4	96	32.4	3	10	292	0.00	29.700 
18:25	33.4	33.4	33.4	95	32.1	2	7	0	0.00	29.700 
18:30	33.4	33.4	33.4	95	32.1	3	10	292	0.00	29.702 
18:35	33.5	33.5	33.5	95	32.2	3	9	292	0.01	29.702 
18:40	33.5	33.5	33.5	95	32.2	2	5	270	0.00	29.702 
18:45	33.5	33.5	33.5	95	32.2	3	10	292	0.00	29.702 
18:50	33.5	33.5	33.5	95	32.2	2	6	292	0.00	29.702 
18:55	33.5	33.5	33.5	95	32.2	3	9	315	0.00	29.702 
19:00	33.5	33.5	33.5	95	32.2	3	8	315	0.01	29.704 
19:05	33.7	33.7	33.7	95	32.4	3	8	315	0.00	29.704 
19:10	33.7	33.7	33.7	95	32.4	3	12	315	0.00	29.704 
19:15	33.7	33.7	33.7	94	32.2	3	6	292	0.00	29.704 
19:20	33.7	33.7	33.7	94	32.2	2	5	292	0.00	29.704 
19:25	33.5	33.5	33.5	94	32.0	3	7	315	0.01	29.704 
19:30	33.5	33.5	33.5	94	32.0	3	10	270	0.00	29.714 
19:35	33.5	33.5	33.5	94	32.0	3	10	270	0.00	29.714 
19:40	33.4	33.4	33.4	94	31.9	3	7	315	0.00	29.714 
19:45	33.4	33.4	33.4	94	31.9	3	9	292	0.00	29.718 
19:50	33.4	33.4	33.4	94	31.9	3	10	315	0.00	29.718 
19:55	33.2	33.2	33.2	94	31.7	2	11	338	0.01	29.718 
20:00	33.2	33.2	33.2	94	31.7	3	5	338	0.00	29.726 
20:05	33.2	33.2	33.2	94	31.7	3	6	315	0.00	29.726 
20:10	33.1	33.1	33.1	94	31.6	2	6	292	0.00	29.726 
20:15	33.1	33.1	33.1	94	31.6	3	8	315	0.00	29.731 
20:20	33.1	33.1	33.1	94	31.6	2	7	292	0.00	29.731 
20:25	33.1	33.1	33.1	94	31.6	2	6	315	0.01	29.731 
20:30	32.9	32.9	32.9	94	31.4	2	7	315	0.00	29.733 
20:35	32.9	32.9	32.9	94	31.4	3	6	315	0.00	29.733 
20:40	32.9	32.9	32.9	94	31.4	3	6	292	0.00	29.733 
20:45	32.9	32.9	32.9	94	31.4	2	7	315	0.00	29.734 
20:50	32.9	32.9	32.9	94	31.4	3	7	315	0.00	29.734 
20:55	32.9	32.9	32.9	94	31.4	2	6	315	0.00	29.734 
21:00	32.8	32.8	32.8	94	31.3	2	5	338	0.00	29.737 
21:05	32.8	32.8	32.8	94	31.3	1	5	315	0.00	29.737 
21:10	32.8	32.8	32.8	94	31.3	2	4	315	0.00	29.737 
21:15	32.8	32.8	32.8	94	31.3	2	7	338	0.00	29.743 
21:20	32.8	32.8	32.8	94	31.3	2	8	292	0.01	29.743 
21:25	32.8	32.8	32.8	94	31.3	2	7	315	0.00	29.743 
21:30	32.7	32.7	32.7	94	31.2	2	5	292	0.00	29.744 
21:35	32.7	32.7	32.7	94	31.2	2	4	292	0.00	29.744 
21:40	32.7	32.7	32.7	94	31.2	1	3	270	0.00	29.744 
21:45	32.5	32.5	32.5	95	31.2	2	5	315	0.00	29.748 
21:50	32.5	32.5	32.5	95	31.2	2	6	315	0.00	29.748 
21:55	32.5	32.5	32.5	95	31.2	1	4	270	0.00	29.748 
22:00	32.5	32.5	32.5	95	31.2	1	5	338	0.00	29.750 
22:05	32.4	32.4	32.4	95	31.1	1	4	292	0.00	29.750 
22:10	32.4	32.4	32.4	95	31.1	2	6	292	0.00	29.750 
22:15	32.4	32.4	32.4	95	31.1	2	5	315	0.00	29.752 
22:20	32.4	32.4	32.4	95	31.1	2	9	315	0.00	29.752 
22:25	32.4	32.4	32.4	95	31.1	1	4	315	0.00	29.752 
22:30	32.4	32.4	32.4	95	31.1	2	4	315	0.00	29.755 
22:35	32.4	32.4	32.4	95	31.1	1	6	270	0.00	29.755 
22:40	32.4	32.4	32.4	95	31.1	2	6	292	0.00	29.755 
22:45	32.4	32.4	32.4	95	31.1	2	6	292	0.00	29.762 
22:50	32.2	32.2	32.2	95	30.9	1	6	270	0.00	29.762 
22:55	32.2	32.2	32.2	95	30.9	1	3	292	0.00	29.762 
23:00	32.2	32.2	32.2	95	30.9	2	4	292	0.00	29.766 
23:05	32.2	32.2	32.2	95	30.9	1	3	292	0.00	29.766 
23:10	32.2	32.2	32.2	95	30.9	1	5	315	0.00	29.766 
23:15	32.1	32.1	32.1	95	30.8	2	5	0	0.00	29.764 
23:20	32.1	32.1	32.1	95	30.8	1	5	292	0.00	29.764 
23:25	32.2	32.2	32.2	95	30.9	1	4	270	0.00	29.764 
23:30	32.2	32.2	32.2	95	30.9	1	4	270	0.00	29.768 
23:35	32.2	32.2	32.2	95	30.9	1	4	315	0.00	29.768 
23:40	32.2	32.2	32.2	95	30.9	1	4	292	0.00	29.768 
23:45	32.2	32.2	32.2	95	30.9	1	4	270	0.00	29.772 
23:50	32.1	32.1	32.1	95	30.8	2	7	270	0.01	29.772 
23:55	32.1	32.1	32.1	95	30.8	2	4	270	0.00	29.772 

CoCoRaHS
IN-AL-39
A2 Web Hosting
Creative Commons License
GoDaddy
search engine by freefind advanced

loaded 2018-11-17 23:00:48 • last modified 2010-11-18 10:43:29
Privacy PolicyDisclaimer
• wx.awcolley.com is powered by PmWiki v.2002016 •
• all content (unless otherwise noted) © 2018 A W Colley